Time;durP1;ratioP1;P1;durP2;ratioP2;P2;SDS_P1;SDS_P2;PMS_P1;PMS_P2;Temp;Humidity;BMP_temperature;BMP_pressure;BME280_temperature;BME280_humidity;BME280_pressure;Samples;Min_cycle;Max_cycle;Signal;HPM_P1;HPM_P2
2022/01/20 00:01:02;;;;;;;1.88;0.50;;;;;;;;;;5022938;28;20084;-62
2022/01/20 00:03:32;;;;;;;1.23;0.75;;;;;;;;;;5024747;28;20046;-61
2022/01/20 00:09:12;;;;;;;0.40;0.40;;;;;;;;;;5020357;28;20144;-62
2022/01/20 00:28:21;;;;;;;0.40;0.40;;;;;;;;;;5020645;28;20173;-64
2022/01/20 00:31:03;;;;;;;0.88;0.40;;;;;;;;;;5020785;28;20132;-64
2022/01/20 00:33:40;;;;;;;0.82;0.50;;;;;;;;;;5027867;28;20050;-64
2022/01/20 00:38:34;;;;;;;0.82;0.30;;;;;;;;;;5025029;28;20041;-64
2022/01/20 00:41:01;;;;;;;3.97;0.57;;;;;;;;;;5024773;28;20069;-63
2022/01/20 00:43:27;;;;;;;1.77;0.55;;;;;;;;;;5024817;28;20136;-64
2022/01/20 00:45:54;;;;;;;0.40;0.35;;;;;;;;;;5026683;28;20064;-64
2022/01/20 00:48:21;;;;;;;1.98;0.80;;;;;;;;;;5024235;28;20069;-63
2022/01/20 00:50:48;;;;;;;2.42;0.57;;;;;;;;;;5023542;28;20144;-64
2022/01/20 00:53:15;;;;;;;1.13;0.70;;;;;;;;;;5026193;28;20504;-63
2022/01/20 00:55:41;;;;;;;0.82;0.50;;;;;;;;;;5026694;28;20571;-64
2022/01/20 00:58:15;;;;;;;0.50;0.50;;;;;;;;;;5024462;28;20100;-63
2022/01/20 01:00:42;;;;;;;1.23;0.80;;;;;;;;;;5030701;28;20106;-64
2022/01/20 01:03:08;;;;;;;0.68;0.50;;;;;;;;;;5025388;28;20300;-64
2022/01/20 01:05:42;;;;;;;0.50;0.50;;;;;;;;;;5029316;28;20055;-64
2022/01/20 01:08:08;;;;;;;1.70;0.50;;;;;;;;;;5026648;28;20342;-63
2022/01/20 01:10:38;;;;;;;0.57;0.50;;;;;;;;;;5024400;28;20832;-63
2022/01/20 01:13:12;;;;;;;1.02;0.52;;;;;;;;;;5019071;28;20494;-64
2022/01/20 01:15:43;;;;;;;1.60;0.73;;;;;;;;;;5028841;28;20497;-64
2022/01/20 01:23:26;;;;;;;2.08;0.73;;;;;;;;;;5024315;28;20077;-64
2022/01/20 01:25:56;;;;;;;0.52;0.50;;;;;;;;;;5022924;28;20042;-63
2022/01/20 01:28:29;;;;;;;1.23;0.60;;;;;;;;;;5023524;28;20049;-64
2022/01/20 01:33:53;;;;;;;2.95;0.52;;;;;;;;;;5024404;28;20061;-64
2022/01/20 01:36:20;;;;;;;2.00;0.73;;;;;;;;;;5022524;28;20077;-64
2022/01/20 01:38:47;;;;;;;2.42;1.10;;;;;;;;;;5012450;28;20136;-63
2022/01/20 01:41:16;;;;;;;5.47;0.85;;;;;;;;;;5026683;28;20132;-64
2022/01/20 01:43:44;;;;;;;2.75;0.80;;;;;;;;;;5023587;28;20144;-64
2022/01/20 01:46:18;;;;;;;1.27;0.82;;;;;;;;;;5025138;28;20045;-64
2022/01/20 01:48:44;;;;;;;1.37;0.50;;;;;;;;;;5025695;28;20147;-64
2022/01/20 01:51:13;;;;;;;4.22;0.85;;;;;;;;;;5003640;28;20281;-64
2022/01/20 01:53:41;;;;;;;2.28;0.93;;;;;;;;;;5023750;28;20076;-63
2022/01/20 01:56:08;;;;;;;2.77;0.80;;;;;;;;;;5024110;28;20079;-64
2022/01/20 01:58:34;;;;;;;2.30;0.80;;;;;;;;;;5022531;28;20469;-64
2022/01/20 02:01:01;;;;;;;3.40;1.08;;;;;;;;;;5026897;28;20099;-63
2022/01/20 02:03:30;;;;;;;5.88;1.20;;;;;;;;;;5012994;28;20095;-63
2022/01/20 02:19:54;;;;;;;1.45;0.80;;;;;;;;;;5021518;28;20042;-63
2022/01/20 02:22:20;;;;;;;4.57;0.80;;;;;;;;;;5022069;28;20589;-64
2022/01/20 02:24:47;;;;;;;2.67;0.93;;;;;;;;;;5021747;28;20132;-64
2022/01/20 02:27:14;;;;;;;1.45;0.60;;;;;;;;;;5025265;28;20060;-63
2022/01/20 02:29:41;;;;;;;1.65;0.90;;;;;;;;;;5024324;28;20053;-63
2022/01/20 02:32:08;;;;;;;0.98;0.68;;;;;;;;;;5024659;28;20133;-64
2022/01/20 02:34:34;;;;;;;4.30;1.05;;;;;;;;;;5020118;28;20458;-64
2022/01/20 02:37:06;;;;;;;2.80;0.88;;;;;;;;;;5021736;28;20046;-63
2022/01/20 02:44:54;;;;;;;1.60;0.63;;;;;;;;;;5024489;28;20176;-63
2022/01/20 02:47:22;;;;;;;4.37;0.67;;;;;;;;;;5022356;28;20053;-64
2022/01/20 02:49:49;;;;;;;1.15;0.60;;;;;;;;;;5024423;28;20148;-64
2022/01/20 02:52:16;;;;;;;1.17;0.88;;;;;;;;;;5022444;28;20817;-64
2022/01/20 02:54:44;;;;;;;0.77;0.70;;;;;;;;;;5021804;28;20049;-64
2022/01/20 02:57:10;;;;;;;5.53;1.90;;;;;;;;;;5019911;28;20239;-64
2022/01/20 02:59:38;;;;;;;2.00;0.60;;;;;;;;;;5019472;28;20375;-64
2022/01/20 03:02:12;;;;;;;6.53;1.15;;;;;;;;;;5021454;28;20059;-64
2022/01/20 03:04:39;;;;;;;3.58;0.82;;;;;;;;;;5024549;28;20046;-64
2022/01/20 03:07:10;;;;;;;1.63;0.88;;;;;;;;;;5021562;28;20053;-63
2022/01/20 03:09:40;;;;;;;3.60;0.88;;;;;;;;;;5021879;28;20140;-64
2022/01/20 03:12:06;;;;;;;2.50;1.08;;;;;;;;;;5021860;28;20563;-64
2022/01/20 03:14:33;;;;;;;3.40;1.10;;;;;;;;;;5018590;28;20052;-63
2022/01/20 03:17:00;;;;;;;2.65;0.90;;;;;;;;;;5017111;28;20453;-64
2022/01/20 03:19:27;;;;;;;3.13;0.90;;;;;;;;;;5022099;28;20592;-64
2022/01/20 03:21:53;;;;;;;2.63;0.77;;;;;;;;;;5024006;28;20412;-64
2022/01/20 03:24:27;;;;;;;0.95;0.60;;;;;;;;;;5023765;28;20076;-63
2022/01/20 03:26:53;;;;;;;26.98;2.35;;;;;;;;;;5020310;28;20621;-63
2022/01/20 03:29:19;;;;;;;3.22;0.80;;;;;;;;;;5020053;28;20568;-64
2022/01/20 03:31:53;;;;;;;1.67;0.88;;;;;;;;;;5020550;28;20144;-64
2022/01/20 03:34:21;;;;;;;1.55;0.80;;;;;;;;;;5020652;28;20104;-64
2022/01/20 03:36:48;;;;;;;2.20;0.68;;;;;;;;;;5021835;28;20402;-63
2022/01/20 03:39:15;;;;;;;3.60;0.90;;;;;;;;;;5021633;28;20596;-64
2022/01/20 03:41:42;;;;;;;0.98;0.75;;;;;;;;;;5022598;28;20140;-64
2022/01/20 03:44:08;;;;;;;1.52;0.93;;;;;;;;;;5022883;28;20521;-64
2022/01/20 03:46:42;;;;;;;2.63;0.90;;;;;;;;;;5019601;28;20053;-63
2022/01/20 03:49:21;;;;;;;2.75;1.05;;;;;;;;;;5022092;28;20045;-63
2022/01/20 03:51:47;;;;;;;2.28;0.75;;;;;;;;;;5020142;28;20137;-64
2022/01/20 03:54:14;;;;;;;3.93;0.80;;;;;;;;;;5022256;28;20050;-64
2022/01/20 03:56:40;;;;;;;3.92;0.90;;;;;;;;;;5020012;28;20049;-64
2022/01/20 03:59:07;;;;;;;0.95;0.70;;;;;;;;;;5021361;28;20172;-64
2022/01/20 04:01:33;;;;;;;2.17;0.90;;;;;;;;;;5019371;28;20054;-64
2022/01/20 04:04:00;;;;;;;2.95;0.95;;;;;;;;;;5023988;28;20141;-63
2022/01/20 04:06:28;;;;;;;1.52;1.00;;;;;;;;;;5025315;28;20137;-63
2022/01/20 04:08:54;;;;;;;;;;;;;;;;;;5025001;28;20148;-63
2022/01/20 04:11:22;;;;;;;0.77;0.65;;;;;;;;;;5025890;28;20023;-64
2022/01/20 04:13:49;;;;;;;1.75;0.95;;;;;;;;;;5027374;28;20049;-63
2022/01/20 04:16:18;;;;;;;1.63;0.82;;;;;;;;;;5026930;28;20172;-63
2022/01/20 04:18:52;;;;;;;2.38;0.88;;;;;;;;;;5028475;28;20141;-63
2022/01/20 04:21:27;;;;;;;2.35;0.70;;;;;;;;;;5027043;28;20138;-63
2022/01/20 04:23:54;;;;;;;0.50;0.50;;;;;;;;;;5025731;28;20060;-63
2022/01/20 04:26:21;;;;;;;3.15;0.75;;;;;;;;;;5026075;28;20556;-63
2022/01/20 04:28:56;;;;;;;2.20;0.55;;;;;;;;;;5025852;28;20136;-63
2022/01/20 04:31:26;;;;;;;1.85;0.85;;;;;;;;;;5026789;28;20528;-64
2022/01/20 04:33:53;;;;;;;1.23;0.57;;;;;;;;;;5040944;28;20061;-64
2022/01/20 04:36:20;;;;;;;3.65;1.00;;;;;;;;;;5044274;28;20408;-63
2022/01/20 04:38:46;;;;;;;5.07;0.90;;;;;;;;;;5044542;28;20476;-63
2022/01/20 04:41:12;;;;;;;2.93;0.90;;;;;;;;;;5042281;28;20131;-64
2022/01/20 04:43:42;;;;;;;2.38;0.90;;;;;;;;;;5044510;28;20397;-64
2022/01/20 04:46:17;;;;;;;3.15;0.70;;;;;;;;;;5047022;28;20037;-64
2022/01/20 04:59:27;;;;;;;2.92;0.63;;;;;;;;;;5045265;28;20213;-64
2022/01/20 05:01:54;;;;;;;0.73;0.60;;;;;;;;;;5044794;28;20041;-64
2022/01/20 05:04:22;;;;;;;2.85;1.10;;;;;;;;;;5043687;28;20500;-64
2022/01/20 05:06:49;;;;;;;3.13;0.77;;;;;;;;;;5045120;28;20144;-64
2022/01/20 05:09:22;;;;;;;3.83;0.70;;;;;;;;;;5043730;28;20131;-63
2022/01/20 05:11:57;;;;;;;1.58;0.60;;;;;;;;;;5038188;28;20144;-64
2022/01/20 05:14:25;;;;;;;1.88;0.80;;;;;;;;;;5046135;28;20075;-63
2022/01/20 05:16:53;;;;;;;1.98;0.70;;;;;;;;;;5043307;28;20139;-63
2022/01/20 05:19:20;;;;;;;0.50;0.50;;;;;;;;;;5042658;28;20604;-63
2022/01/20 05:21:46;;;;;;;1.75;0.70;;;;;;;;;;5043046;28;20137;-63
2022/01/20 05:24:13;;;;;;;3.13;0.57;;;;;;;;;;5045520;28;20045;-64
2022/01/20 05:26:39;;;;;;;3.10;0.80;;;;;;;;;;5042501;28;20073;-63
2022/01/20 05:29:06;;;;;;;2.40;0.90;;;;;;;;;;5044649;28;20076;-64
2022/01/20 05:31:32;;;;;;;1.85;0.60;;;;;;;;;;5044815;28;20123;-64
2022/01/20 05:33:59;;;;;;;1.58;0.60;;;;;;;;;;5030088;28;20572;-64
2022/01/20 05:36:26;;;;;;;3.45;1.23;;;;;;;;;;5026997;28;20099;-64
2022/01/20 05:38:52;;;;;;;2.15;1.00;;;;;;;;;;5025321;28;20131;-64
2022/01/20 05:41:18;;;;;;;1.20;0.73;;;;;;;;;;5026302;28;20073;-64
2022/01/20 05:43:45;;;;;;;2.20;0.55;;;;;;;;;;5026776;28;20578;-63
2022/01/20 05:46:14;;;;;;;2.47;0.63;;;;;;;;;;5023802;28;20505;-63
2022/01/20 05:48:47;;;;;;;1.15;0.57;;;;;;;;;;5012261;28;20062;-64
2022/01/20 05:51:13;;;;;;;5.68;0.90;;;;;;;;;;5022423;28;20088;-64
2022/01/20 05:53:40;;;;;;;4.27;0.80;;;;;;;;;;5022695;28;20141;-64
2022/01/20 05:56:06;;;;;;;6.53;0.90;;;;;;;;;;5022647;28;20832;-64
2022/01/20 05:58:36;;;;;;;0.68;0.55;;;;;;;;;;5022538;28;20132;-64
2022/01/20 06:01:04;;;;;;;2.40;0.80;;;;;;;;;;5019319;28;20077;-64
2022/01/20 06:03:36;;;;;;;2.63;0.82;;;;;;;;;;5023398;28;20053;-64
2022/01/20 06:06:04;;;;;;;1.65;0.80;;;;;;;;;;5021608;28;20105;-64
2022/01/20 06:08:31;;;;;;;1.35;0.95;;;;;;;;;;5022993;28;20124;-64
2022/01/20 06:10:58;;;;;;;1.08;0.73;;;;;;;;;;5022668;28;20081;-63
2022/01/20 06:13:25;;;;;;;1.53;0.70;;;;;;;;;;5025332;28;20545;-64
2022/01/20 06:15:51;;;;;;;1.25;0.60;;;;;;;;;;5023743;28;20874;-64
2022/01/20 06:18:18;;;;;;;1.23;0.55;;;;;;;;;;5020070;28;20515;-63
2022/01/20 06:20:44;;;;;;;1.02;0.65;;;;;;;;;;5020388;28;20133;-64
2022/01/20 06:23:11;;;;;;;1.95;0.73;;;;;;;;;;5020102;28;20172;-63
2022/01/20 06:25:37;;;;;;;2.03;0.77;;;;;;;;;;5019140;28;20081;-63
2022/01/20 06:28:04;;;;;;;2.28;0.45;;;;;;;;;;5019939;28;20049;-63
2022/01/20 06:30:32;;;;;;;1.75;0.50;;;;;;;;;;5025123;28;20092;-64
2022/01/20 06:32:58;;;;;;;0.65;0.60;;;;;;;;;;5030773;28;20524;-63
2022/01/20 06:35:25;;;;;;;0.40;0.40;;;;;;;;;;5043107;28;20089;-64
2022/01/20 06:37:52;;;;;;;0.50;0.50;;;;;;;;;;5039513;28;20056;-63
2022/01/20 06:40:18;;;;;;;2.30;0.68;;;;;;;;;;5045985;28;20095;-64
2022/01/20 06:42:45;;;;;;;0.87;0.50;;;;;;;;;;5042900;28;20133;-63
2022/01/20 06:45:12;;;;;;;;;;;;;;;;;;5044683;28;20409;-64
2022/01/20 06:47:39;;;;;;;1.85;0.45;;;;;;;;;;5041764;28;19952;-63
2022/01/20 06:50:08;;;;;;;0.52;0.30;;;;;;;;;;5043707;28;20140;-64
2022/01/20 06:52:35;;;;;;;3.50;0.80;;;;;;;;;;5043088;28;20639;-64
2022/01/20 06:55:10;;;;;;;2.85;0.60;;;;;;;;;;5045270;28;20629;-63
2022/01/20 06:57:37;;;;;;;1.60;0.60;;;;;;;;;;5042859;28;20103;-64
2022/01/20 07:00:05;;;;;;;0.82;0.60;;;;;;;;;;5039688;28;20059;-63
2022/01/20 07:02:31;;;;;;;1.65;0.47;;;;;;;;;;5043714;28;20131;-64
2022/01/20 07:04:58;;;;;;;1.02;0.82;;;;;;;;;;5040933;28;20069;-64
2022/01/20 07:07:25;;;;;;;0.90;0.50;;;;;;;;;;5043541;28;20132;-64
2022/01/20 07:09:51;;;;;;;1.15;0.40;;;;;;;;;;5038875;28;20137;-64
2022/01/20 07:12:18;;;;;;;3.78;0.80;;;;;;;;;;5041469;28;20084;-64
2022/01/20 07:14:44;;;;;;;2.55;0.68;;;;;;;;;;5037944;28;20084;-63
2022/01/20 07:17:10;;;;;;;1.20;1.00;;;;;;;;;;5041788;28;20084;-63
2022/01/20 07:19:37;;;;;;;2.85;0.50;;;;;;;;;;5042733;28;20513;-63
2022/01/20 07:22:03;;;;;;;1.00;0.57;;;;;;;;;;5038416;28;20053;-63
2022/01/20 07:24:30;;;;;;;1.05;0.50;;;;;;;;;;5045317;28;20131;-63
2022/01/20 07:26:57;;;;;;;0.47;0.47;;;;;;;;;;5040828;28;20111;-63
2022/01/20 07:29:25;;;;;;;0.52;0.40;;;;;;;;;;5039973;28;20076;-64
2022/01/20 07:31:52;;;;;;;4.07;0.80;;;;;;;;;;5038882;28;20207;-64
2022/01/20 07:34:18;;;;;;;1.08;0.68;;;;;;;;;;5042676;28;20089;-63
2022/01/20 07:36:45;;;;;;;0.43;0.43;;;;;;;;;;5041426;28;20110;-64
2022/01/20 07:39:12;;;;;;;0.30;0.30;;;;;;;;;;5041955;28;20412;-63
2022/01/20 07:41:38;;;;;;;1.25;0.68;;;;;;;;;;5038144;28;20124;-64
2022/01/20 07:44:05;;;;;;;1.40;0.50;;;;;;;;;;5042395;28;20132;-63
2022/01/20 07:46:31;;;;;;;1.55;0.52;;;;;;;;;;5040265;28;20051;-63
2022/01/20 07:48:58;;;;;;;3.00;0.60;;;;;;;;;;5041995;28;20049;-63
2022/01/20 07:51:24;;;;;;;1.50;0.60;;;;;;;;;;5038510;28;20049;-63
2022/01/20 07:53:51;;;;;;;2.45;0.70;;;;;;;;;;5040093;28;20073;-63
2022/01/20 07:56:17;;;;;;;1.25;0.50;;;;;;;;;;5040726;28;20056;-63
2022/01/20 07:58:44;;;;;;;1.83;0.65;;;;;;;;;;5030376;28;20110;-64
2022/01/20 08:01:10;;;;;;;1.38;0.52;;;;;;;;;;5043146;28;20092;-64
2022/01/20 08:03:37;;;;;;;0.50;0.50;;;;;;;;;;5042262;28;20240;-64
2022/01/20 08:06:04;;;;;;;0.47;0.43;;;;;;;;;;5042307;28;20083;-63
2022/01/20 08:08:30;;;;;;;0.80;0.52;;;;;;;;;;5043292;28;20041;-63
2022/01/20 08:10:57;;;;;;;0.63;0.50;;;;;;;;;;5039959;28;20100;-64
2022/01/20 08:13:24;;;;;;;0.40;0.30;;;;;;;;;;5037142;28;20484;-64
2022/01/20 08:15:50;;;;;;;1.08;0.55;;;;;;;;;;5041904;28;20136;-64
2022/01/20 08:18:17;;;;;;;0.50;0.40;;;;;;;;;;5038906;28;20076;-64
2022/01/20 08:20:43;;;;;;;2.05;0.95;;;;;;;;;;5037927;28;20091;-64
2022/01/20 08:23:10;;;;;;;0.40;0.40;;;;;;;;;;5043512;28;20136;-64
2022/01/20 08:25:37;;;;;;;1.35;0.60;;;;;;;;;;5041682;28;20158;-64
2022/01/20 08:28:03;;;;;;;1.48;0.55;;;;;;;;;;5040685;28;20056;-64
2022/01/20 08:30:30;;;;;;;0.85;0.50;;;;;;;;;;5039092;28;20136;-64
2022/01/20 08:33:03;;;;;;;0.50;0.50;;;;;;;;;;5021971;28;20370;-64
2022/01/20 08:35:32;;;;;;;1.25;0.50;;;;;;;;;;5043014;28;20567;-64
2022/01/20 08:37:59;;;;;;;1.55;0.70;;;;;;;;;;5039672;28;20498;-63
2022/01/20 08:40:26;;;;;;;0.80;0.68;;;;;;;;;;5040900;28;20076;-63
2022/01/20 08:42:54;;;;;;;0.55;0.40;;;;;;;;;;5038749;28;20491;-63
2022/01/20 08:45:22;;;;;;;0.93;0.50;;;;;;;;;;5039874;28;20079;-64
2022/01/20 08:47:54;;;;;;;1.60;0.80;;;;;;;;;;5039529;28;20088;-64
2022/01/20 08:50:21;;;;;;;0.65;0.50;;;;;;;;;;5039974;28;20077;-64
2022/01/20 08:52:48;;;;;;;0.90;0.60;;;;;;;;;;5042055;28;20191;-64
2022/01/20 08:55:15;;;;;;;1.20;0.50;;;;;;;;;;5043596;28;20092;-64
2022/01/20 08:57:43;;;;;;;3.03;0.80;;;;;;;;;;5043403;28;20085;-64
2022/01/20 09:00:10;;;;;;;1.00;0.50;;;;;;;;;;5045514;28;20081;-64
2022/01/20 09:02:37;;;;;;;0.40;0.40;;;;;;;;;;5046999;28;20096;-64
2022/01/20 09:05:06;;;;;;;2.72;0.50;;;;;;;;;;5044387;28;20080;-63
2022/01/20 09:07:33;;;;;;;1.13;0.60;;;;;;;;;;5043972;28;20132;-64
2022/01/20 09:10:00;;;;;;;0.77;0.50;;;;;;;;;;5045857;28;20391;-64
2022/01/20 09:15:28;;;;;;;4.00;0.80;;;;;;;;;;5047319;28;20114;-64
2022/01/20 09:17:59;;;;;;;1.30;0.70;;;;;;;;;;5043304;28;20080;-63
2022/01/20 09:20:26;;;;;;;4.03;0.60;;;;;;;;;;5043483;28;20456;-64
2022/01/20 09:22:54;;;;;;;0.57;0.50;;;;;;;;;;5042078;28;20057;-64
2022/01/20 09:25:27;;;;;;;0.80;0.60;;;;;;;;;;5043622;28;20678;-64
2022/01/20 09:27:55;;;;;;;2.10;0.77;;;;;;;;;;5043081;28;20045;-64
2022/01/20 09:30:23;;;;;;;0.57;0.50;;;;;;;;;;5044756;28;20080;-64
2022/01/20 09:33:09;;;;;;;3.22;0.98;;;;;;;;;;5041110;28;20481;-64
2022/01/20 09:35:36;;;;;;;1.73;0.60;;;;;;;;;;5041949;28;20128;-64
2022/01/20 09:38:08;;;;;;;1.90;0.60;;;;;;;;;;5042834;28;20049;-64
2022/01/20 09:40:40;;;;;;;2.67;0.82;;;;;;;;;;5048154;28;20056;-64
2022/01/20 09:43:06;;;;;;;;;;;;;;;;;;5041044;28;20115;-64
2022/01/20 09:45:33;;;;;;;2.30;0.80;;;;;;;;;;5042232;28;19968;-64
2022/01/20 09:48:01;;;;;;;1.20;0.57;;;;;;;;;;5041894;28;20559;-64
2022/01/20 09:50:29;;;;;;;3.03;0.80;;;;;;;;;;5044378;28;20057;-64
2022/01/20 09:53:00;;;;;;;1.67;0.60;;;;;;;;;;5042452;28;20488;-64
2022/01/20 09:55:28;;;;;;;2.65;0.80;;;;;;;;;;5040446;28;20463;-64
2022/01/20 09:58:02;;;;;;;1.38;0.65;;;;;;;;;;5042975;28;20081;-63
2022/01/20 10:00:28;;;;;;;5.07;0.77;;;;;;;;;;5040515;28;20148;-64
2022/01/20 10:03:00;;;;;;;1.05;0.98;;;;;;;;;;5044245;28;20504;-64
2022/01/20 10:05:29;;;;;;;1.13;0.70;;;;;;;;;;5043124;28;20049;-63
2022/01/20 10:08:24;;;;;;;2.60;0.80;;;;;;;;;;5043222;28;20077;-64
2022/01/20 10:11:10;;;;;;;1.42;0.90;;;;;;;;;;5032948;28;20504;-63
2022/01/20 10:13:37;;;;;;;0.73;0.50;;;;;;;;;;5044474;28;20075;-63
2022/01/20 10:16:12;;;;;;;1.52;0.68;;;;;;;;;;5045624;28;20049;-64
2022/01/20 10:18:53;;;;;;;1.30;0.65;;;;;;;;;;5048475;28;20135;-63
2022/01/20 10:21:27;;;;;;;1.02;0.60;;;;;;;;;;5049998;28;20040;-67
2022/01/20 10:23:54;;;;;;;0.88;0.73;;;;;;;;;;5045267;28;20041;-63
2022/01/20 10:26:22;;;;;;;2.77;0.60;;;;;;;;;;5042215;28;20819;-64
2022/01/20 10:29:02;;;;;;;4.20;0.90;;;;;;;;;;5044227;28;20788;-63
2022/01/20 10:31:34;;;;;;;1.15;0.75;;;;;;;;;;5055058;28;20144;-63
2022/01/20 10:34:18;;;;;;;1.35;0.73;;;;;;;;;;5041601;28;20049;-63
2022/01/20 10:36:53;;;;;;;3.13;0.70;;;;;;;;;;5046697;28;20088;-63
2022/01/20 10:39:30;;;;;;;2.53;0.70;;;;;;;;;;5046268;28;20124;-63
2022/01/20 10:42:05;;;;;;;4.05;0.68;;;;;;;;;;5040547;28;20416;-63
2022/01/20 10:44:41;;;;;;;1.13;0.60;;;;;;;;;;5041887;28;20132;-63
2022/01/20 10:47:22;;;;;;;1.60;0.95;;;;;;;;;;5043061;28;20049;-63
2022/01/20 10:49:49;;;;;;;;;;;;;;;;;;5043592;28;20092;-63
2022/01/20 10:52:18;;;;;;;0.80;0.70;;;;;;;;;;5042365;28;20260;-63
2022/01/20 10:54:49;;;;;;;1.88;0.70;;;;;;;;;;5045909;28;20052;-63
2022/01/20 10:57:16;;;;;;;2.35;0.50;;;;;;;;;;5044769;28;20470;-63
2022/01/20 10:59:52;;;;;;;2.22;0.90;;;;;;;;;;5041775;28;20475;-63
2022/01/20 11:02:20;;;;;;;0.88;0.73;;;;;;;;;;5042987;28;20092;-63
2022/01/20 11:04:48;;;;;;;3.35;1.00;;;;;;;;;;5041915;28;20057;-63
2022/01/20 11:07:14;;;;;;;;;;;;;;;;;;5043337;28;20704;-63
2022/01/20 11:09:44;;;;;;;1.23;0.68;;;;;;;;;;5041544;28;19925;-63
2022/01/20 11:12:12;;;;;;;2.28;1.10;;;;;;;;;;5042387;28;20156;-63
2022/01/20 11:14:39;;;;;;;2.72;0.65;;;;;;;;;;5041892;28;20540;-63
2022/01/20 11:17:05;;;;;;;3.50;0.98;;;;;;;;;;5042407;28;20127;-63
2022/01/20 11:19:39;;;;;;;7.47;1.00;;;;;;;;;;5041657;28;20083;-63
2022/01/20 11:22:11;;;;;;;0.40;0.35;;;;;;;;;;5042819;28;20144;-63
2022/01/20 11:24:39;;;;;;;2.05;0.90;;;;;;;;;;5042171;28;20493;-63
2022/01/20 11:27:07;;;;;;;3.15;1.05;;;;;;;;;;5041969;28;20081;-63
2022/01/20 11:29:39;;;;;;;2.80;0.82;;;;;;;;;;5041426;28;20132;-63
2022/01/20 11:32:16;;;;;;;3.90;0.80;;;;;;;;;;5044055;28;20057;-63
2022/01/20 11:35:03;;;;;;;0.85;0.50;;;;;;;;;;5043257;28;20148;-63
2022/01/20 11:37:36;;;;;;;2.33;0.73;;;;;;;;;;5040930;28;20051;-63
2022/01/20 11:40:16;;;;;;;2.03;0.95;;;;;;;;;;5039434;28;20467;-63
2022/01/20 11:43:05;;;;;;;0.82;0.65;;;;;;;;;;5039781;28;20435;-63
2022/01/20 11:45:33;;;;;;;1.25;0.60;;;;;;;;;;5039176;28;20144;-63
2022/01/20 11:48:11;;;;;;;1.77;0.80;;;;;;;;;;5039444;28;20164;-63
2022/01/20 11:50:38;;;;;;;2.08;0.70;;;;;;;;;;5037529;28;20084;-64
2022/01/20 11:53:11;;;;;;;5.25;0.95;;;;;;;;;;5043185;28;20139;-63
2022/01/20 11:55:45;;;;;;;1.70;0.80;;;;;;;;;;5042569;28;20151;-63
2022/01/20 11:58:21;;;;;;;2.08;0.80;;;;;;;;;;5040389;28;20091;-63
2022/01/20 12:01:02;;;;;;;2.47;0.77;;;;;;;;;;5043554;28;20080;-63
2022/01/20 12:03:31;;;;;;;1.67;0.73;;;;;;;;;;5039957;28;20049;-63
2022/01/20 12:05:59;;;;;;;1.20;0.68;;;;;;;;;;5042926;28;20139;-63
2022/01/20 12:08:25;;;;;;;1.50;0.80;;;;;;;;;;5039309;28;20120;-63
2022/01/20 12:11:00;;;;;;;1.38;0.70;;;;;;;;;;5040827;28;20596;-63
2022/01/20 12:13:27;;;;;;;4.13;1.13;;;;;;;;;;5040900;28;20037;-63
2022/01/20 12:15:58;;;;;;;1.03;0.70;;;;;;;;;;5040089;28;20517;-63
2022/01/20 12:18:25;;;;;;;1.48;1.00;;;;;;;;;;5040660;28;20059;-63
2022/01/20 12:20:51;;;;;;;3.90;0.80;;;;;;;;;;5040864;28;20041;-64
2022/01/20 12:23:19;;;;;;;1.33;0.90;;;;;;;;;;5040812;28;20097;-63
2022/01/20 12:25:47;;;;;;;1.63;0.70;;;;;;;;;;5041911;28;20133;-63
2022/01/20 12:28:14;;;;;;;0.57;0.57;;;;;;;;;;5042858;28;20528;-64
2022/01/20 12:30:47;;;;;;;1.05;0.63;;;;;;;;;;5047351;28;20128;-64
2022/01/20 12:33:21;;;;;;;1.03;0.83;;;;;;;;;;5037857;28;20092;-64
2022/01/20 12:35:49;;;;;;;3.65;1.05;;;;;;;;;;5022889;28;20445;-64
2022/01/20 12:38:22;;;;;;;2.17;0.80;;;;;;;;;;5025086;28;20085;-64
2022/01/20 12:41:05;;;;;;;1.33;0.60;;;;;;;;;;5029092;28;20053;-64
2022/01/20 12:43:34;;;;;;;1.75;0.70;;;;;;;;;;5021348;28;20485;-64
2022/01/20 12:46:03;;;;;;;2.38;1.00;;;;;;;;;;5028058;28;20053;-64
2022/01/20 12:48:30;;;;;;;2.73;1.03;;;;;;;;;;5024139;28;20128;-64
2022/01/20 12:50:59;;;;;;;3.70;0.98;;;;;;;;;;5025929;28;20383;-64
2022/01/20 12:53:33;;;;;;;1.73;0.95;;;;;;;;;;5024288;28;20124;-64
2022/01/20 12:56:00;;;;;;;1.67;0.63;;;;;;;;;;5024072;28;20104;-64
2022/01/20 12:58:26;;;;;;;1.10;1.00;;;;;;;;;;5024463;28;20092;-64
2022/01/20 13:00:56;;;;;;;4.95;0.90;;;;;;;;;;5023909;28;20137;-64
2022/01/20 13:03:32;;;;;;;1.20;0.60;;;;;;;;;;5022733;28;20160;-64
2022/01/20 13:05:59;;;;;;;1.13;0.65;;;;;;;;;;5021865;28;20056;-65
2022/01/20 13:08:31;;;;;;;10.07;1.00;;;;;;;;;;5021724;28;20136;-64
2022/01/20 13:11:02;;;;;;;3.17;1.40;;;;;;;;;;5024439;28;20261;-64
2022/01/20 13:13:29;;;;;;;3.15;0.88;;;;;;;;;;5022275;28;20137;-65
2022/01/20 13:15:55;;;;;;;3.13;0.80;;;;;;;;;;5021598;28;20054;-65
2022/01/20 13:18:22;;;;;;;1.40;0.80;;;;;;;;;;5024364;28;20054;-65
2022/01/20 13:20:59;;;;;;;7.28;0.60;;;;;;;;;;5026587;28;20132;-65
2022/01/20 13:26:04;;;;;;;1.23;0.73;;;;;;;;;;5022873;28;20132;-65
2022/01/20 13:28:31;;;;;;;1.83;0.73;;;;;;;;;;5024215;28;20085;-64
2022/01/20 13:30:57;;;;;;;1.40;0.80;;;;;;;;;;5013591;28;20092;-65
2022/01/20 13:33:28;;;;;;;2.35;0.93;;;;;;;;;;5019429;28;20053;-65
2022/01/20 13:35:59;;;;;;;1.30;0.75;;;;;;;;;;5021285;28;20129;-65
2022/01/20 13:38:45;;;;;;;3.53;0.90;;;;;;;;;;5021793;28;20073;-65
2022/01/20 13:41:13;;;;;;;3.63;1.00;;;;;;;;;;5021639;28;20085;-64
2022/01/20 13:46:24;;;;;;;2.20;0.90;;;;;;;;;;5022662;28;19929;-64
2022/01/20 13:48:51;;;;;;;1.73;0.95;;;;;;;;;;5024513;28;20055;-65
2022/01/20 13:51:24;;;;;;;1.27;0.77;;;;;;;;;;5020400;28;20152;-65
2022/01/20 13:53:56;;;;;;;3.38;1.20;;;;;;;;;;5022306;28;20045;-65
2022/01/20 13:56:23;;;;;;;2.45;1.00;;;;;;;;;;5022325;28;20148;-64
2022/01/20 13:58:50;;;;;;;1.88;0.85;;;;;;;;;;5024162;28;20093;-64
2022/01/20 14:01:16;;;;;;;1.92;1.00;;;;;;;;;;5025221;28;20600;-64
2022/01/20 14:03:43;;;;;;;4.15;0.82;;;;;;;;;;5021007;28;20045;-64
2022/01/20 14:06:10;;;;;;;3.20;0.73;;;;;;;;;;5020880;28;20128;-64
2022/01/20 14:08:39;;;;;;;1.95;1.10;;;;;;;;;;5026624;28;20128;-64
2022/01/20 14:11:05;;;;;;;3.35;1.13;;;;;;;;;;5024556;28;20049;-65
2022/01/20 14:13:32;;;;;;;1.80;1.00;;;;;;;;;;5025847;28;20092;-63
2022/01/20 14:16:01;;;;;;;4.75;0.95;;;;;;;;;;5022565;28;20136;-65
2022/01/20 14:18:33;;;;;;;3.95;0.90;;;;;;;;;;5021431;28;20345;-64
2022/01/20 14:21:04;;;;;;;2.33;0.82;;;;;;;;;;5022160;28;20052;-64
2022/01/20 14:23:30;;;;;;;2.10;0.93;;;;;;;;;;5023154;28;20128;-65
2022/01/20 14:26:00;;;;;;;4.35;0.98;;;;;;;;;;5023291;28;20144;-64
2022/01/20 14:28:27;;;;;;;2.30;1.27;;;;;;;;;;5023836;28;20144;-64
2022/01/20 14:30:53;;;;;;;5.27;1.27;;;;;;;;;;5021124;28;20151;-64
2022/01/20 14:33:20;;;;;;;3.08;1.05;;;;;;;;;;5027727;28;20331;-64
2022/01/20 14:35:46;;;;;;;6.30;1.20;;;;;;;;;;5044726;28;20045;-64
2022/01/20 14:38:19;;;;;;;6.55;0.80;;;;;;;;;;5045041;28;20053;-64
2022/01/20 14:40:46;;;;;;;2.42;0.50;;;;;;;;;;5043625;28;20077;-65
2022/01/20 14:43:18;;;;;;;3.55;1.27;;;;;;;;;;5041618;28;20063;-64
2022/01/20 14:45:45;;;;;;;1.58;0.90;;;;;;;;;;5043268;28;20053;-64
2022/01/20 14:48:14;;;;;;;5.30;1.00;;;;;;;;;;5042374;28;20135;-64
2022/01/20 14:50:40;;;;;;;3.03;0.93;;;;;;;;;;5040689;28;20050;-64
2022/01/20 14:53:07;;;;;;;6.43;1.35;;;;;;;;;;5044049;28;20128;-64
2022/01/20 14:55:33;;;;;;;3.63;0.75;;;;;;;;;;5039559;28;20132;-64
2022/01/20 14:58:07;;;;;;;2.60;1.08;;;;;;;;;;5039655;28;20072;-64
2022/01/20 15:00:36;;;;;;;4.55;1.00;;;;;;;;;;5044790;28;20079;-64
2022/01/20 15:03:04;;;;;;;0.45;0.40;;;;;;;;;;5042661;28;20072;-64
2022/01/20 15:05:32;;;;;;;1.27;0.80;;;;;;;;;;5039786;28;20051;-64
2022/01/20 15:07:58;;;;;;;2.15;0.88;;;;;;;;;;5041653;28;20131;-64
2022/01/20 15:10:25;;;;;;;4.10;0.95;;;;;;;;;;5040722;28;20041;-64
2022/01/20 15:12:59;;;;;;;1.40;0.80;;;;;;;;;;5043448;28;20139;-64
2022/01/20 15:15:26;;;;;;;3.40;0.93;;;;;;;;;;5040582;28;20478;-64
2022/01/20 15:17:52;;;;;;;5.25;1.00;;;;;;;;;;5042502;28;20199;-64
2022/01/20 15:20:37;;;;;;;2.55;1.02;;;;;;;;;;5045462;28;20095;-64
2022/01/20 15:23:11;;;;;;;2.65;1.30;;;;;;;;;;5040232;28;20053;-64
2022/01/20 15:25:37;;;;;;;3.63;1.00;;;;;;;;;;5041049;28;20097;-64
2022/01/20 15:28:06;;;;;;;5.68;1.02;;;;;;;;;;5038661;28;20129;-64
2022/01/20 15:30:39;;;;;;;2.42;1.00;;;;;;;;;;5041317;28;20136;-64
2022/01/20 15:33:05;;;;;;;4.40;0.95;;;;;;;;;;5035992;28;20084;-64
2022/01/20 15:35:32;;;;;;;2.22;1.20;;;;;;;;;;5020158;28;20133;-64
2022/01/20 15:37:59;;;;;;;1.00;0.60;;;;;;;;;;5024462;28;20528;-64
2022/01/20 15:40:25;;;;;;;3.38;0.85;;;;;;;;;;5018505;28;20133;-64
2022/01/20 15:42:52;;;;;;;;;;;;;;;;;;5022620;28;20085;-64
2022/01/20 15:45:19;;;;;;;1.88;1.00;;;;;;;;;;5020932;28;20336;-64
2022/01/20 15:47:45;;;;;;;14.88;7.68;;;;;;;;;;5016671;28;20128;-64
2022/01/20 15:50:13;;;;;;;4.47;1.30;;;;;;;;;;5021242;28;20049;-64
2022/01/20 15:52:40;;;;;;;5.47;1.98;;;;;;;;;;5018821;28;20053;-64
2022/01/20 15:55:07;;;;;;;6.28;1.40;;;;;;;;;;5019750;28;20650;-64
2022/01/20 15:57:33;;;;;;;0.90;0.80;;;;;;;;;;5021642;28;20131;-64
2022/01/20 16:00:06;;;;;;;4.20;1.08;;;;;;;;;;5016680;28;20056;-64
2022/01/20 16:02:32;;;;;;;8.02;1.33;;;;;;;;;;5022333;28;20131;-64
2022/01/20 16:04:59;;;;;;;1.98;1.10;;;;;;;;;;5025790;28;20144;-63